Time;durP1;ratioP1;P1;durP2;ratioP2;P2;SDS_P1;SDS_P2;PMS_P1;PMS_P2;Temp;Humidity;BMP_temperature;BMP_pressure;BME280_temperature;BME280_humidity;BME280_pressure;Samples;Min_cycle;Max_cycle;Signal;HPM_P1;HPM_P2
2022/11/25 00:03:39;;;;;;;0.20;0.10;;;15.50;99.90;;;;;;25779523;23;20370;-70
2022/11/25 00:13:46;;;;;;;0.20;0.10;;;16.30;99.90;;;;;;25785616;23;20431;-70
2022/11/25 00:23:52;;;;;;;0.20;0.10;;;16.40;99.90;;;;;;25760844;23;20385;-70
2022/11/25 00:33:57;;;;;;;0.20;0.07;;;16.20;99.90;;;;;;25761405;23;20377;-69
2022/11/25 00:54:24;;;;;;;0.20;0.00;;;15.10;99.90;;;;;;25737280;23;20385;-71
2022/11/25 01:04:28;;;;;;;0.20;0.10;;;15.50;99.90;;;;;;25784451;23;20437;-70
2022/11/25 01:14:34;;;;;;;0.20;0.10;;;15.60;99.90;;;;;;25759075;23;20366;-70
2022/11/25 01:24:38;;;;;;;0.20;0.10;;;15.40;99.90;;;;;;25757221;23;20402;-69
2022/11/25 01:34:47;;;;;;;0.20;0.03;;;15.60;99.90;;;;;;25785150;23;20488;-70
2022/11/25 01:45:30;;;;;;;0.20;0.10;;;15.00;99.90;;;;;;25784095;23;20370;-71
2022/11/25 01:55:41;;;;;;;0.20;0.10;;;14.50;99.90;;;;;;25759060;23;20358;-71
2022/11/25 02:05:50;;;;;;;0.20;0.10;;;14.40;99.90;;;;;;25755167;23;20386;-68
2022/11/25 02:15:58;;;;;;;0.20;0.10;;;14.00;99.90;;;;;;25783742;23;20369;-69
2022/11/25 02:26:05;;;;;;;0.20;0.10;;;14.10;99.90;;;;;;25781400;23;20374;-71
2022/11/25 02:36:14;;;;;;;0.20;0.10;;;14.50;99.90;;;;;;25780349;23;20374;-70
2022/11/25 02:46:24;;;;;;;0.20;0.10;;;14.70;99.90;;;;;;25780776;23;20398;-69
2022/11/25 02:56:33;;;;;;;0.20;0.00;;;15.10;99.90;;;;;;25781936;23;20372;-70
2022/11/25 03:06:38;;;;;;;0.20;0.10;;;15.40;99.90;;;;;;25780958;23;20389;-69
2022/11/25 03:16:42;;;;;;;0.20;0.00;;;15.20;99.90;;;;;;25756836;23;20401;-71
2022/11/25 03:26:47;;;;;;;0.20;0.10;;;15.30;99.90;;;;;;25752994;23;20377;-71
2022/11/25 03:36:52;;;;;;;0.20;0.00;;;15.10;99.90;;;;;;25755435;23;20357;-69
2022/11/25 03:46:57;;;;;;;0.20;0.10;;;15.00;99.90;;;;;;25756916;23;20412;-69
2022/11/25 03:57:01;;;;;;;0.20;0.10;;;15.30;99.90;;;;;;25761711;23;20376;-70
2022/11/25 04:07:06;;;;;;;0.20;0.00;;;15.20;99.90;;;;;;25761762;23;20378;-70
2022/11/25 04:17:10;;;;;;;0.20;0.10;;;15.00;99.90;;;;;;25761561;23;20855;-70
2022/11/25 04:27:18;;;;;;;0.20;0.10;;;15.30;99.90;;;;;;25761702;23;20378;-69
2022/11/25 04:37:23;;;;;;;0.20;0.10;;;15.30;99.90;;;;;;25786928;23;20374;-69
2022/11/25 04:47:28;;;;;;;0.20;0.10;;;15.30;99.90;;;;;;25786493;23;20389;-71
2022/11/25 04:57:32;;;;;;;0.20;0.00;;;14.90;99.90;;;;;;25784479;23;20359;-69
2022/11/25 05:07:37;;;;;;;0.20;0.10;;;14.80;99.90;;;;;;25786304;23;20380;-70
2022/11/25 05:17:42;;;;;;;0.20;0.10;;;14.70;99.90;;;;;;25732719;23;20389;-72
2022/11/25 05:27:47;;;;;;;0.20;0.10;;;14.50;99.90;;;;;;25757184;23;20370;-71
2022/11/25 05:37:53;;;;;;;0.20;0.10;;;14.40;99.90;;;;;;25754513;23;20426;-69
2022/11/25 05:47:58;;;;;;;0.20;0.10;;;14.60;99.90;;;;;;25784139;23;20370;-69
2022/11/25 05:58:03;;;;;;;0.20;0.10;;;14.20;99.90;;;;;;25729977;23;20369;-70
2022/11/25 06:08:11;;;;;;;0.20;0.10;;;14.00;99.90;;;;;;25755215;23;20394;-70
2022/11/25 06:18:17;;;;;;;0.20;0.10;;;13.80;99.90;;;;;;25782740;23;20369;-71
2022/11/25 06:28:22;;;;;;;0.20;0.00;;;13.80;99.90;;;;;;25781106;23;20397;-68
2022/11/25 06:38:26;;;;;;;0.20;0.05;;;13.80;99.90;;;;;;25754485;23;20390;-70
2022/11/25 06:48:32;;;;;;;0.20;0.10;;;13.70;99.90;;;;;;25775284;23;20370;-67
2022/11/25 06:58:39;;;;;;;0.20;0.10;;;13.80;99.90;;;;;;25772212;23;20373;-70
2022/11/25 07:08:45;;;;;;;0.20;0.10;;;14.00;99.90;;;;;;25772762;23;20389;-72
2022/11/25 10:11:46;;;;;;;0.20;0.00;;;18.40;99.90;;;;;;25775253;23;20393;-72
2022/11/25 10:32:27;;;;;;;0.20;0.07;;;18.90;99.90;;;;;;21288298;27;20390;-73
2022/11/25 10:42:31;;;;;;;0.20;0.10;;;19.70;99.90;;;;;;21321581;27;20390;-73
2022/11/25 10:52:41;;;;;;;0.20;0.10;;;19.60;99.90;;;;;;21285367;27;20410;-71
2022/11/25 11:02:47;;;;;;;0.20;0.10;;;19.70;99.90;;;;;;21286434;27;20398;-73
2022/11/25 11:12:57;;;;;;;0.20;0.00;;;19.70;99.90;;;;;;21284153;27;20394;-71
2022/11/25 11:23:10;;;;;;;0.20;0.00;;;19.50;99.90;;;;;;21283564;27;20511;-72
2022/11/25 11:33:32;;;;;;;0.20;0.10;;;20.40;99.90;;;;;;21225624;28;20394;-75
2022/11/25 11:43:55;;;;;;;0.20;0.10;;;21.80;99.90;;;;;;21225029;28;20416;-72
2022/11/25 11:54:08;;;;;;;0.20;0.10;;;21.70;99.90;;;;;;21226998;28;20420;-72
2022/11/25 12:04:17;;;;;;;0.20;0.00;;;20.00;99.90;;;;;;21183054;28;20421;-73
2022/11/25 12:14:32;;;;;;;0.20;0.00;;;19.70;99.90;;;;;;21210147;28;20408;-73
2022/11/25 12:24:42;;;;;;;0.20;0.00;;;19.60;99.90;;;;;;21139039;28;20404;-75
2022/11/25 12:34:53;;;;;;;0.20;0.00;;;19.60;99.90;;;;;;21138652;28;20404;-73
2022/11/25 12:45:02;;;;;;;0.20;0.00;;;19.50;99.90;;;;;;21132828;28;20389;-72
2022/11/25 12:55:18;;;;;;;0.20;0.00;;;19.20;99.90;;;;;;21136124;28;20453;-72
2022/11/25 13:06:04;;;;;;;0.20;0.10;;;18.80;99.90;;;;;;21135827;28;20384;-73
2022/11/25 13:16:10;;;;;;;0.20;0.10;;;19.10;99.90;;;;;;21093815;28;20408;-73
2022/11/25 13:26:47;;;;;;;0.20;0.10;;;19.00;99.90;;;;;;21131573;28;20399;-72
2022/11/25 13:36:54;;;;;;;0.20;0.10;;;18.20;99.90;;;;;;21126480;28;20400;-72
2022/11/25 13:47:00;;;;;;;0.20;0.10;;;18.40;99.90;;;;;;21127384;28;20415;-73
2022/11/25 13:57:27;;;;;;;0.20;0.00;;;19.90;99.90;;;;;;21129424;28;20408;-73
2022/11/25 14:07:52;;;;;;;0.20;0.00;;;21.30;99.90;;;;;;21141531;28;20432;-77
2022/11/25 14:18:28;;;;;;;0.20;0.00;;;19.90;99.90;;;;;;21214012;28;20396;-73
2022/11/25 14:28:57;;;;;;;0.20;0.00;;;17.90;99.90;;;;;;21215106;28;20622;-73
2022/11/25 14:39:05;;;;;;;0.20;0.10;;;17.30;99.90;;;;;;21212057;28;20470;-69
2022/11/25 14:49:09;;;;;;;0.20;0.03;;;17.90;99.90;;;;;;21216276;28;20391;-74
2022/11/25 14:59:35;;;;;;;0.20;0.10;;;17.30;99.90;;;;;;21127815;28;20477;-73
2022/11/25 15:09:45;;;;;;;0.20;0.10;;;17.40;99.90;;;;;;21142778;28;20428;-74
2022/11/25 15:19:50;;;;;;;0.20;0.10;;;17.30;99.90;;;;;;21140249;28;20392;-73
2022/11/25 15:29:56;;;;;;;0.20;0.00;;;17.90;99.90;;;;;;21140760;28;20401;-74
2022/11/25 15:40:39;;;;;;;0.20;0.10;;;17.60;99.90;;;;;;21123112;28;20396;-74
2022/11/25 15:50:43;;;;;;;0.20;0.10;;;18.10;99.90;;;;;;21134178;28;20388;-75
2022/11/25 16:01:03;;;;;;;0.20;0.00;;;17.40;99.90;;;;;;21137710;28;20408;-71
2022/11/25 16:11:18;;;;;;;0.20;0.10;;;16.40;99.90;;;;;;21137120;28;20381;-73
2022/11/25 16:21:26;;;;;;;0.20;0.03;;;15.30;99.90;;;;;;21135267;28;20428;-73
2022/11/25 16:31:30;;;;;;;0.20;0.10;;;14.60;99.90;;;;;;21131539;28;20392;-74
2022/11/25 16:41:36;;;;;;;0.20;0.10;;;14.60;99.90;;;;;;21134336;28;20419;-74
2022/11/25 16:51:40;;;;;;;0.20;0.03;;;14.20;99.90;;;;;;21133007;28;20479;-74
2022/11/25 17:01:47;;;;;;;0.20;0.10;;;14.00;99.90;;;;;;21132218;28;20478;-70
2022/11/25 17:11:54;;;;;;;0.20;0.10;;;13.90;99.90;;;;;;21131645;28;20443;-72
2022/11/25 17:21:59;;;;;;;10.60;10.10;;;14.10;99.90;;;;;;21128727;28;20416;-71
2022/11/25 17:32:05;;;;;;;0.20;0.10;;;13.90;99.90;;;;;;21129949;28;20384;-72
2022/11/25 17:42:14;;;;;;;0.20;0.10;;;13.40;99.90;;;;;;21126844;28;20430;-72
2022/11/25 17:52:18;;;;;;;0.20;0.10;;;13.50;99.90;;;;;;21125934;28;20475;-74
2022/11/25 18:02:23;;;;;;;0.20;0.10;;;13.60;99.90;;;;;;21126007;28;20495;-72
2022/11/25 18:12:29;;;;;;;0.20;0.10;;;12.70;99.90;;;;;;21124062;28;20453;-71
2022/11/25 18:22:35;;;;;;;0.20;0.10;;;12.70;99.90;;;;;;21126400;28;20421;-72
2022/11/25 18:32:39;;;;;;;0.20;0.00;;;12.50;99.90;;;;;;21123298;28;20393;-72
2022/11/25 18:42:48;;;;;;;0.20;0.00;;;11.80;99.90;;;;;;21141338;28;20476;-72
2022/11/25 18:52:53;;;;;;;0.20;0.00;;;11.60;99.90;;;;;;21139075;28;20404;-72
2022/11/25 19:02:58;;;;;;;0.20;0.00;;;11.80;99.90;;;;;;21138323;28;20454;-71
2022/11/25 19:13:06;;;;;;;0.20;0.10;;;11.60;99.90;;;;;;21139932;28;20425;-72
2022/11/25 19:23:20;;;;;;;0.20;0.00;;;11.50;99.90;;;;;;21180972;28;20394;-71
2022/11/25 19:33:29;;;;;;;0.20;0.10;;;11.30;99.90;;;;;;21221990;28;20379;-71
2022/11/25 19:43:34;;;;;;;0.20;0.10;;;11.30;99.90;;;;;;21223871;28;20394;-71
2022/11/25 19:53:38;;;;;;;0.20;0.00;;;10.90;99.90;;;;;;21184146;28;20408;-74
2022/11/25 20:03:45;;;;;;;0.20;0.10;;;10.90;99.90;;;;;;21137539;28;20420;-70
2022/11/25 20:13:50;;;;;;;0.20;0.10;;;10.80;99.90;;;;;;21132329;28;20460;-70
2022/11/25 20:23:56;;;;;;;0.20;0.10;;;10.80;99.90;;;;;;21136099;28;20468;-71
2022/11/25 20:34:00;;;;;;;0.20;0.10;;;11.40;99.90;;;;;;21133782;28;20389;-73
2022/11/25 20:44:05;;;;;;;0.20;0.10;;;12.90;99.90;;;;;;21134785;28;20403;-71
2022/11/25 20:54:13;;;;;;;0.20;0.10;;;13.40;99.90;;;;;;21130292;28;20389;-71
2022/11/25 21:04:18;;;;;;;0.20;0.10;;;13.30;99.90;;;;;;21132196;28;20397;-72
2022/11/25 21:14:22;;;;;;;0.20;0.10;;;13.10;99.90;;;;;;21135948;28;21478;-70
2022/11/25 21:24:33;;;;;;;0.20;0.10;;;13.00;99.90;;;;;;21210763;28;20387;-67
2022/11/25 21:34:37;;;;;;;0.20;0.10;;;12.90;99.90;;;;;;21209903;28;20426;-70
2022/11/25 21:44:43;;;;;;;0.20;0.03;;;12.60;99.90;;;;;;21210390;28;20427;-70
2022/11/25 21:54:47;;;;;;;0.20;0.10;;;12.10;99.90;;;;;;21161094;28;20412;-70
2022/11/25 22:04:52;;;;;;;0.20;0.10;;;11.80;99.90;;;;;;21124661;28;20392;-70
2022/11/25 22:14:58;;;;;;;0.20;0.10;;;12.20;99.90;;;;;;21132644;28;20413;-70
2022/11/25 22:25:04;;;;;;;0.20;0.10;;;11.90;99.90;;;;;;21209100;28;20600;-70
2022/11/25 22:35:14;;;;;;;0.20;0.07;;;11.80;99.90;;;;;;21206737;28;20406;-71
2022/11/25 22:45:32;;;;;;;0.20;0.00;;;11.60;99.90;;;;;;21207905;28;20389;-71
2022/11/25 22:55:52;;;;;;;0.20;0.10;;;10.90;99.90;;;;;;21133084;28;20400;-72
2022/11/25 23:06:11;;;;;;;0.20;0.10;;;11.50;99.90;;;;;;21118271;28;20418;-72
2022/11/25 23:16:15;;;;;;;0.20;0.10;;;11.90;99.90;;;;;;21142969;28;20394;-71
2022/11/25 23:26:21;;;;;;;0.20;0.10;;;11.50;99.90;;;;;;21217613;28;20398;-70
2022/11/25 23:36:33;;;;;;;0.20;0.10;;;11.40;99.90;;;;;;21223807;28;20409;-69
2022/11/25 23:46:41;;;;;;;0.20;0.10;;;11.10;99.90;;;;;;21222826;28;20405;-69
2022/11/25 23:56:44;;;;;;;0.20;0.10;;;10.80;99.90;;;;;;21137656;28;20396;-70
